Airfield :
LOGIN :

Register | Disclaimer

   EN    FR    IT 

 










Legend :    VFR   Marginal VFR   IFR   Intensive IFR   Very Intensive IFR
Visi :
Ceiling :
>= 8 km
>= 3000ft
5 to 8 km
1000 to 3000 ft
1500m to 5 km
500 to 1000 ft
800 to 1500m
200 to 500 ft
< 800m
< 200 ft
Symbols :   Thunderstorms  Fog  Heavy snow  Heavy precipitations  Wind > 20 kt
SIGMETs :     Misc.  Thunderstorms  Icing  Turbulence  Mountain Waves  Volcanic Ashes







- Airport Elevation : 124 ft
- IATA code : RNS
- Download approach charts


LFRN - Rennes

CURRENT METAR :
  • 150030Z AUTO 27013KT CAVOK 06/03 Q0999 TEMPO 4000 SHRAGS BKN015CB

EXPIRED METARs :
  • 150000Z AUTO 27014KT 240V300 9999 FEW048 SCT110 BKN150 06/03 Q0999 TEMPO 25015G25KT 4000 SHRAGS BKN015CB
  • 142330Z AUTO 27013KT 9999 -RA SCT036 BKN044 BKN058 06/03 Q0999 TEMPO 25015G25KT 4000 SHRAGS BKN015CB
  • 142300Z AUTO 25013KT 9999 FEW037 SCT046 BKN190 06/03 Q0998 TEMPO 4000 SHRAGS BKN015CB BECMG 26015G25KT
  • 142230Z AUTO 26016KT 9999 -RA FEW034 BKN040 BKN048 06/03 Q0998 TEMPO 4000 SHRAGS BKN015CB BECMG 26015G25KT
  • 142200Z AUTO 24012KT 9999 -RA FEW035 BKN066 BKN090 05/02 Q0998 TEMPO 24020G35KT 2000 TSRAGS BKN010 BKN015CB

TAF TAF LFRN
Valid from the 15 at 00:00 until the 16 at 00:00 UTC


142300Z 1500/1524 25015G25KT 9999 BKN030
TEMPO 1500/1512 4000 SHRAGS BKN015CB
BECMG 1501/1503 26010KT
PROB40
TEMPO 1503/1507 26020G35KT 2000 TSRAGS BKN010
BECMG 1509/1511 32015G30KT
BECMG 1514/1516 32010KT
ATIS : +33 2 99 67 72 50
No reported NOTAMs for that airfield.
1 SIGMET reported for the Brest FIR (LFRR) :
 
Severe turbulence
LFRR SIGMET 18 VALID 142300/150300 LFPW
LFRR BREST FIR/UIR SEV TURB FCST WI N4630 W00100 - N4630 W00130 - N4330 W00145 - N4500 W00800 - N4900 W00800 - N5000 W00200 - N5000 W00115 - N4830 W00115 - N4815 W00345 - N4630 W00100 SFC/FL050 STNR WKN=



MET'MAP, your aeronautical weather chart ! - Copyright ORBIFLY December 2007 - Disclaimer

ORBIFLY MET'MAP TEAM :

Programming & Development : Alexandra Zaïnal
Concept & Development : Baudouin d'Aumeries
Co-Development & Prog : Marc-Olivier Méhu
Technical & hardware support : Manuel Goepfert

Contact : metmap@orbifly.com




SOURCES & CREDITS :

   NOAA